createdAt,value
2022-12-24T00:01:33.878Z,15.08
2022-12-24T00:04:00.467Z,15.07
2022-12-24T00:06:27.038Z,15.07
2022-12-24T00:08:53.671Z,15.06
2022-12-24T00:11:20.746Z,15.06
2022-12-24T00:13:47.706Z,15.07
2022-12-24T00:16:14.423Z,15.05
2022-12-24T00:18:45.880Z,15.05
2022-12-24T00:21:13.230Z,15.04
2022-12-24T00:23:40.619Z,15.05
2022-12-24T00:26:07.175Z,15.05
2022-12-24T00:28:33.839Z,15.03
2022-12-24T00:31:00.511Z,15.05
2022-12-24T00:33:27.134Z,15.06
2022-12-24T00:35:53.938Z,15.07
2022-12-24T00:38:20.768Z,15.07
2022-12-24T00:40:47.347Z,15.08
2022-12-24T00:43:13.917Z,15.08
2022-12-24T00:45:40.473Z,15.11
2022-12-24T00:48:07.043Z,15.12
2022-12-24T00:50:33.744Z,15.13
2022-12-24T00:53:00.336Z,15.12
2022-12-24T00:55:26.989Z,15.13
2022-12-24T00:57:53.557Z,15.13
2022-12-24T01:00:20.531Z,15.13
2022-12-24T01:02:47.400Z,15.13
2022-12-24T01:05:14.114Z,15.13
2022-12-24T01:07:44.072Z,15.11
2022-12-24T01:10:17.720Z,15.12
2022-12-24T01:12:44.868Z,15.11
2022-12-24T01:15:12.760Z,15.11
2022-12-24T01:17:39.918Z,15.12
2022-12-24T01:20:08.927Z,15.10
2022-12-24T01:22:35.933Z,15.08
2022-12-24T01:25:02.695Z,15.08
2022-12-24T01:27:29.876Z,15.07
2022-12-24T01:29:56.429Z,15.06
2022-12-24T01:32:23.015Z,15.07
2022-12-24T01:34:49.555Z,15.05
2022-12-24T01:37:16.125Z,15.06
2022-12-24T01:39:42.904Z,15.05
2022-12-24T01:42:45.919Z,15.06
2022-12-24T01:45:30.934Z,15.05
2022-12-24T01:47:57.480Z,15.04
2022-12-24T01:50:24.096Z,15.05
2022-12-24T01:52:50.671Z,15.04
2022-12-24T01:55:18.202Z,15.06
2022-12-24T01:57:57.081Z,15.06
2022-12-24T02:00:23.674Z,15.07
2022-12-24T02:02:52.886Z,15.08
2022-12-24T02:05:36.927Z,15.08
2022-12-24T02:08:05.078Z,15.09
2022-12-24T02:10:31.779Z,15.12
2022-12-24T02:12:59.228Z,15.11
2022-12-24T02:15:26.773Z,15.08
2022-12-24T02:18:07.705Z,15.08
2022-12-24T02:20:55.729Z,15.08
2022-12-24T02:23:40.284Z,15.08
2022-12-24T02:26:44.434Z,15.08
2022-12-24T02:29:29.492Z,15.07
2022-12-24T02:32:02.704Z,15.07
2022-12-24T02:34:29.189Z,15.07
2022-12-24T02:37:14.432Z,15.07
2022-12-24T02:39:51.730Z,15.07
2022-12-24T02:42:22.619Z,15.07
2022-12-24T02:44:53.564Z,15.07
2022-12-24T02:47:22.114Z,15.07
2022-12-24T02:49:49.080Z,15.07
2022-12-24T02:52:48.391Z,15.08
2022-12-24T02:55:25.539Z,15.07
2022-12-24T02:58:13.717Z,15.07
2022-12-24T03:00:52.616Z,15.06
2022-12-24T03:03:28.421Z,15.06
2022-12-24T03:06:18.543Z,15.06
2022-12-24T03:08:49.510Z,15.03
2022-12-24T03:11:16.170Z,15.05
2022-12-24T03:13:43.332Z,15.06
2022-12-24T03:16:16.175Z,15.05
2022-12-24T03:18:44.863Z,15.07
2022-12-24T03:21:18.041Z,15.07
2022-12-24T03:23:44.650Z,15.07
2022-12-24T03:26:12.894Z,15.08
2022-12-24T03:28:40.963Z,15.10
2022-12-24T03:31:08.648Z,15.07
2022-12-24T03:33:35.605Z,15.08
2022-12-24T03:36:03.374Z,15.07
2022-12-24T03:38:29.954Z,15.08
2022-12-24T03:40:56.745Z,15.08
2022-12-24T03:43:23.357Z,15.07
2022-12-24T03:45:49.965Z,15.07
2022-12-24T03:48:16.591Z,15.08
2022-12-24T03:50:43.134Z,15.07
2022-12-24T03:53:09.706Z,15.08
2022-12-24T03:55:36.320Z,15.06
2022-12-24T03:58:02.868Z,15.05
2022-12-24T04:00:29.461Z,15.06
2022-12-24T04:02:56.070Z,15.06
2022-12-24T04:05:22.804Z,15.05
2022-12-24T04:07:49.410Z,15.05
2022-12-24T04:10:17.141Z,15.05
2022-12-24T04:12:43.720Z,15.04
2022-12-24T04:15:10.712Z,15.03
2022-12-24T04:17:37.538Z,15.03
2022-12-24T04:20:04.478Z,15.03
2022-12-24T04:22:31.061Z,15.02
2022-12-24T04:24:57.599Z,15.02
2022-12-24T04:27:30.099Z,15.02
2022-12-24T04:29:57.488Z,15.03
2022-12-24T04:32:26.254Z,15.03
2022-12-24T04:34:52.860Z,15.04
2022-12-24T04:37:19.410Z,15.03
2022-12-24T04:39:46.000Z,15.06
2022-12-24T04:42:12.570Z,15.07
2022-12-24T04:44:39.116Z,15.07
2022-12-24T04:47:05.684Z,15.08
2022-12-24T04:49:32.239Z,15.10
2022-12-24T04:51:58.872Z,15.10
2022-12-24T04:54:25.450Z,15.10
2022-12-24T04:56:51.994Z,15.11
2022-12-24T04:59:18.531Z,15.11
2022-12-24T05:01:45.200Z,15.11
2022-12-24T05:04:12.004Z,15.08
2022-12-24T05:06:38.613Z,15.08
2022-12-24T05:09:05.181Z,15.08
2022-12-24T05:11:31.810Z,15.08
2022-12-24T05:13:58.512Z,15.07
2022-12-24T05:16:25.178Z,15.07
2022-12-24T05:18:52.579Z,15.05
2022-12-24T05:21:24.866Z,15.06
2022-12-24T05:24:10.040Z,15.05
2022-12-24T05:26:45.725Z,15.06
2022-12-24T05:29:12.814Z,15.04
2022-12-24T05:31:40.307Z,15.03
2022-12-24T05:34:08.101Z,15.03
2022-12-24T05:36:34.905Z,15.04
2022-12-24T05:39:01.469Z,15.03
2022-12-24T05:41:28.077Z,15.03
2022-12-24T05:43:54.881Z,15.02
2022-12-24T05:46:22.814Z,15.02
2022-12-24T05:48:50.032Z,15.03
2022-12-24T05:51:22.143Z,15.02
2022-12-24T05:53:49.743Z,15.03
2022-12-24T05:56:19.429Z,15.03
2022-12-24T05:58:46.191Z,15.04
2022-12-24T06:01:13.459Z,15.05
2022-12-24T06:03:40.364Z,15.05
2022-12-24T06:06:20.859Z,15.06
2022-12-24T06:08:51.620Z,15.06
2022-12-24T06:11:25.310Z,15.07
2022-12-24T06:13:57.482Z,15.07
2022-12-24T06:16:25.813Z,15.06
2022-12-24T06:18:53.277Z,15.08
2022-12-24T06:21:20.025Z,15.06
2022-12-24T06:23:47.006Z,15.07
2022-12-24T06:26:16.840Z,15.06
2022-12-24T06:28:44.302Z,15.06
2022-12-24T06:31:13.564Z,15.06
2022-12-24T06:33:40.518Z,15.06
2022-12-24T06:36:17.554Z,15.06
2022-12-24T06:38:45.987Z,15.07
2022-12-24T06:41:12.654Z,15.06
2022-12-24T06:43:39.253Z,15.05
2022-12-24T06:46:06.050Z,15.05
2022-12-24T06:48:32.655Z,15.06
2022-12-24T06:51:02.037Z,15.06
2022-12-24T06:53:28.596Z,15.05
2022-12-24T06:56:08.317Z,15.05
2022-12-24T06:58:35.505Z,15.04
2022-12-24T07:01:06.068Z,15.04
2022-12-24T07:03:33.360Z,15.03
2022-12-24T07:06:00.276Z,15.02
2022-12-24T07:08:27.212Z,15.02
2022-12-24T07:10:54.748Z,15.02
2022-12-24T07:13:21.746Z,15.03
2022-12-24T07:16:00.179Z,15.04
2022-12-24T07:18:26.762Z,15.04
2022-12-24T07:20:53.384Z,15.05
2022-12-24T07:23:21.239Z,15.06
2022-12-24T07:25:55.865Z,15.06
2022-12-24T07:28:27.734Z,15.05
2022-12-24T07:30:58.090Z,15.06
2022-12-24T07:33:36.419Z,15.07
2022-12-24T07:36:06.180Z,15.08
2022-12-24T07:38:34.142Z,15.07
2022-12-24T07:41:01.109Z,15.08
2022-12-24T07:43:28.174Z,15.06
2022-12-24T07:45:56.661Z,15.07
2022-12-24T07:48:23.706Z,15.07
2022-12-24T07:50:51.189Z,15.05
2022-12-24T07:53:17.975Z,15.06
2022-12-24T07:55:44.899Z,15.06
2022-12-24T07:58:11.513Z,15.04
2022-12-24T08:00:38.317Z,15.05
2022-12-24T08:03:05.146Z,15.04
2022-12-24T08:05:36.199Z,15.03
2022-12-24T08:08:03.118Z,15.03
2022-12-24T08:10:29.770Z,15.02
2022-12-24T08:12:56.342Z,15.01
2022-12-24T08:15:22.929Z,15.02
2022-12-24T08:17:49.524Z,14.99
2022-12-24T08:20:17.344Z,15.01
2022-12-24T08:22:44.416Z,15.01
2022-12-24T08:25:10.986Z,15.02
2022-12-24T08:27:37.989Z,15.02
2022-12-24T08:30:05.299Z,15.02
2022-12-24T08:32:32.094Z,15.03
2022-12-24T08:34:58.665Z,15.04
2022-12-24T08:37:25.258Z,15.04
2022-12-24T08:39:51.818Z,15.07
2022-12-24T08:42:18.471Z,15.07
2022-12-24T08:44:45.151Z,15.07
2022-12-24T08:47:11.736Z,15.08
2022-12-24T08:49:39.560Z,15.10
2022-12-24T08:52:06.666Z,15.10
2022-12-24T08:54:33.215Z,15.10
2022-12-24T08:56:59.773Z,15.10
2022-12-24T08:59:26.364Z,15.10
2022-12-24T09:01:53.127Z,15.09
2022-12-24T09:04:20.267Z,15.08
2022-12-24T09:06:46.863Z,15.08
2022-12-24T09:09:13.476Z,15.08
2022-12-24T09:11:40.088Z,15.08
2022-12-24T09:14:06.732Z,15.07
2022-12-24T09:16:33.459Z,15.07
2022-12-24T09:19:00.137Z,15.07
2022-12-24T09:21:26.710Z,15.07
2022-12-24T09:23:53.276Z,15.08
2022-12-24T09:26:22.478Z,15.05
2022-12-24T09:28:49.580Z,15.06
2022-12-24T09:31:16.619Z,15.05
2022-12-24T09:33:44.756Z,15.05
2022-12-24T09:36:11.402Z,15.03
2022-12-24T09:38:39.663Z,15.06
2022-12-24T09:41:15.663Z,15.04
2022-12-24T09:43:48.214Z,15.04
2022-12-24T09:46:22.508Z,15.03
2022-12-24T09:48:56.121Z,15.02
2022-12-24T09:51:39.968Z,15.04
2022-12-24T09:54:30.076Z,15.06
2022-12-24T09:57:00.417Z,15.05
2022-12-24T09:59:41.659Z,15.07
2022-12-24T10:02:13.720Z,15.07
2022-12-24T10:04:40.835Z,15.08
2022-12-24T10:07:31.758Z,15.10
2022-12-24T10:10:27.487Z,15.10
2022-12-24T10:13:12.776Z,15.10
2022-12-24T10:16:03.935Z,15.10
2022-12-24T10:18:54.421Z,15.11
2022-12-24T10:22:00.944Z,15.11
2022-12-24T10:24:49.849Z,15.11
2022-12-24T10:27:19.573Z,15.10
2022-12-24T10:29:49.530Z,15.12
2022-12-24T10:32:19.137Z,15.12
2022-12-24T10:34:52.628Z,15.11
2022-12-24T10:37:28.624Z,15.12
2022-12-24T10:39:59.435Z,15.12
2022-12-24T10:42:50.191Z,15.11
2022-12-24T10:45:21.479Z,15.08
2022-12-24T10:47:50.144Z,15.10
2022-12-24T10:50:28.628Z,15.07
2022-12-24T10:53:18.790Z,15.09
2022-12-24T10:55:47.832Z,15.07
2022-12-24T10:58:17.876Z,15.05
2022-12-24T11:00:51.898Z,15.06
2022-12-24T11:03:18.423Z,15.06
2022-12-24T11:05:45.250Z,15.06
2022-12-24T11:08:17.594Z,15.04
2022-12-24T11:10:59.971Z,15.07
2022-12-24T11:13:38.751Z,15.06
2022-12-24T11:16:06.182Z,15.07
2022-12-24T11:18:35.634Z,15.08
2022-12-24T11:21:03.577Z,15.10
2022-12-24T11:23:30.887Z,15.08
2022-12-24T11:25:58.432Z,15.08
2022-12-24T11:28:30.626Z,15.11
2022-12-24T11:30:59.704Z,15.11
2022-12-24T11:33:26.715Z,15.11
2022-12-24T11:35:56.589Z,15.11
2022-12-24T11:38:26.120Z,15.10
2022-12-24T11:41:04.886Z,15.10
2022-12-24T11:43:45.982Z,15.09
2022-12-24T11:46:22.824Z,15.10
2022-12-24T11:49:08.261Z,15.10
2022-12-24T11:51:35.636Z,15.10
2022-12-24T11:54:09.873Z,15.07
2022-12-24T11:56:41.354Z,15.08
2022-12-24T11:59:15.095Z,15.07
2022-12-24T12:01:50.484Z,15.07
2022-12-24T12:04:21.685Z,15.10
2022-12-24T12:07:02.348Z,15.10
2022-12-24T12:09:31.419Z,15.10
2022-12-24T12:12:07.978Z,15.10
2022-12-24T12:14:46.378Z,15.10
2022-12-24T12:17:41.512Z,15.08
2022-12-24T12:20:30.049Z,15.10
2022-12-24T12:23:02.818Z,15.10
2022-12-24T12:25:42.166Z,15.10
2022-12-24T12:28:21.045Z,15.08
2022-12-24T12:30:55.874Z,15.10
2022-12-24T12:33:38.981Z,15.10
2022-12-24T12:36:08.252Z,15.11
2022-12-24T12:38:35.020Z,15.11
2022-12-24T12:41:09.163Z,15.11
2022-12-24T12:43:49.855Z,15.14
2022-12-24T12:46:39.661Z,15.12
2022-12-24T12:49:24.410Z,15.14
2022-12-24T12:52:29.270Z,15.14
2022-12-24T12:55:28.122Z,15.12
2022-12-24T12:58:00.375Z,15.13
2022-12-24T13:00:28.468Z,15.13
2022-12-24T13:03:13.834Z,15.11
2022-12-24T13:06:15.045Z,15.13
2022-12-24T13:09:01.384Z,15.12
2022-12-24T13:11:33.545Z,15.11
2022-12-24T13:14:26.807Z,15.12
2022-12-24T13:16:53.343Z,15.13
2022-12-24T13:19:40.816Z,15.11
2022-12-24T13:22:16.028Z,15.10
2022-12-24T13:24:51.868Z,15.10
2022-12-24T13:27:24.101Z,15.10
2022-12-24T13:30:06.952Z,15.08
2022-12-24T13:32:52.889Z,15.07
2022-12-24T13:35:19.442Z,15.07
2022-12-24T13:37:47.306Z,15.08
2022-12-24T13:40:22.453Z,15.07
2022-12-24T13:43:07.572Z,15.06
2022-12-24T13:45:34.273Z,15.06
2022-12-24T13:48:07.043Z,15.07
2022-12-24T13:50:37.984Z,15.01
2022-12-24T13:53:05.995Z,15.03
2022-12-24T13:55:33.036Z,15.06
2022-12-24T13:58:02.031Z,15.10
2022-12-24T14:00:33.737Z,15.10
2022-12-24T14:03:03.262Z,15.12
2022-12-24T14:05:37.877Z,15.13
2022-12-24T14:08:08.614Z,15.16
2022-12-24T14:10:45.268Z,15.17
2022-12-24T14:13:47.425Z,15.16
2022-12-24T14:16:22.935Z,15.17
2022-12-24T14:19:24.762Z,15.17
2022-12-24T14:22:10.146Z,15.17
2022-12-24T14:24:43.332Z,15.17
2022-12-24T14:27:17.929Z,15.16
2022-12-24T14:30:05.519Z,15.16
2022-12-24T14:32:36.946Z,15.15
2022-12-24T14:35:17.005Z,15.15
2022-12-24T14:37:47.330Z,15.15
2022-12-24T14:40:19.280Z,15.15
2022-12-24T14:42:57.798Z,15.14
2022-12-24T14:45:30.402Z,15.13
2022-12-24T14:48:08.769Z,15.14
2022-12-24T14:50:57.158Z,15.12
2022-12-24T14:53:42.974Z,15.11
2022-12-24T14:56:20.195Z,15.11
2022-12-24T14:58:47.262Z,15.12
2022-12-24T15:01:28.786Z,15.10
2022-12-24T15:04:10.442Z,15.10
2022-12-24T15:06:44.060Z,15.08
2022-12-24T15:09:19.318Z,15.08
2022-12-24T15:11:46.943Z,15.07
2022-12-24T15:14:13.884Z,15.07
2022-12-24T15:16:40.827Z,15.11
2022-12-24T15:19:16.813Z,15.11
2022-12-24T15:21:44.271Z,15.11
2022-12-24T15:24:32.557Z,15.12
2022-12-24T15:27:05.564Z,15.13
2022-12-24T15:29:33.552Z,15.14
2022-12-24T15:32:02.257Z,15.14
2022-12-24T15:34:40.024Z,15.14
2022-12-24T15:37:31.046Z,15.15
2022-12-24T15:40:20.184Z,15.15
2022-12-24T15:42:46.771Z,15.13
2022-12-24T15:45:28.530Z,15.13
2022-12-24T15:47:59.398Z,15.13
2022-12-24T15:50:31.978Z,15.13
2022-12-24T15:53:21.062Z,15.13
2022-12-24T15:56:09.592Z,15.13
2022-12-24T15:58:41.600Z,15.13
2022-12-24T16:01:14.298Z,15.13
2022-12-24T16:03:50.365Z,15.14
2022-12-24T16:06:17.360Z,15.12
2022-12-24T16:08:45.587Z,15.13
2022-12-24T16:11:23.926Z,15.12
2022-12-24T16:13:50.467Z,15.11
2022-12-24T16:16:22.096Z,15.12
2022-12-24T16:18:53.895Z,15.13
2022-12-24T16:21:24.445Z,15.10
2022-12-24T16:23:53.275Z,15.11
2022-12-24T16:26:20.228Z,15.08
2022-12-24T16:28:46.803Z,15.10
2022-12-24T16:31:28.517Z,15.08
2022-12-24T16:33:55.750Z,15.10
2022-12-24T16:36:22.328Z,15.10
2022-12-24T16:39:07.693Z,15.11
2022-12-24T16:41:54.192Z,15.12
2022-12-24T16:44:21.142Z,15.12
2022-12-24T16:46:47.738Z,15.12
2022-12-24T16:49:17.758Z,15.12
2022-12-24T16:51:45.156Z,15.12
2022-12-24T16:54:15.468Z,15.13
2022-12-24T16:56:42.775Z,15.14
2022-12-24T16:59:20.659Z,15.14
2022-12-24T17:01:48.409Z,15.12
2022-12-24T17:04:15.715Z,15.14
2022-12-24T17:06:42.344Z,15.13
2022-12-24T17:09:09.848Z,15.12
2022-12-24T17:11:36.834Z,15.13
2022-12-24T17:14:08.056Z,15.11
2022-12-24T17:16:37.455Z,15.12
2022-12-24T17:19:04.942Z,15.12
2022-12-24T17:21:31.686Z,15.11
2022-12-24T17:23:58.673Z,15.11
2022-12-24T17:26:25.281Z,15.10
2022-12-24T17:28:56.229Z,15.11
2022-12-24T17:31:24.217Z,15.10
2022-12-24T17:33:52.236Z,15.10
2022-12-24T17:36:19.545Z,15.08
2022-12-24T17:38:46.268Z,15.08
2022-12-24T17:41:15.139Z,15.07
2022-12-24T17:43:42.126Z,15.09
2022-12-24T17:46:11.855Z,15.06
2022-12-24T17:48:38.623Z,15.08
2022-12-24T17:51:09.332Z,15.08
2022-12-24T17:53:40.266Z,15.09
2022-12-24T17:56:07.846Z,15.10
2022-12-24T17:58:34.473Z,15.11
2022-12-24T18:01:01.366Z,15.12
2022-12-24T18:03:28.307Z,15.12
2022-12-24T18:05:54.934Z,15.14
2022-12-24T18:08:21.616Z,15.13
2022-12-24T18:10:48.197Z,15.15
2022-12-24T18:13:19.297Z,15.14
2022-12-24T18:15:46.320Z,15.14
2022-12-24T18:18:13.110Z,15.15
2022-12-24T18:20:46.070Z,15.15
2022-12-24T18:23:13.321Z,15.14
2022-12-24T18:25:47.839Z,15.14
2022-12-24T18:28:14.382Z,15.14
2022-12-24T18:30:40.911Z,15.13
2022-12-24T18:33:07.907Z,15.13
2022-12-24T18:35:34.466Z,15.13
2022-12-24T18:38:01.026Z,15.13
2022-12-24T18:40:27.551Z,15.12
2022-12-24T18:42:54.077Z,15.12
2022-12-24T18:45:20.713Z,15.11
2022-12-24T18:47:47.267Z,15.11
2022-12-24T18:50:13.905Z,15.10
2022-12-24T18:52:40.476Z,15.08
2022-12-24T18:55:08.242Z,15.11
2022-12-24T18:57:35.351Z,15.10
2022-12-24T19:00:02.020Z,15.08
2022-12-24T19:02:28.691Z,15.08
2022-12-24T19:04:55.334Z,15.08
2022-12-24T19:07:21.883Z,15.07
2022-12-24T19:09:48.750Z,15.07
2022-12-24T19:12:15.857Z,15.07
2022-12-24T19:14:42.795Z,15.10
2022-12-24T19:17:09.368Z,15.08
2022-12-24T19:19:35.963Z,15.10
2022-12-24T19:22:02.591Z,15.11
2022-12-24T19:24:29.290Z,15.12
2022-12-24T19:26:55.870Z,15.12
2022-12-24T19:29:22.407Z,15.12
2022-12-24T19:31:49.059Z,15.13
2022-12-24T19:34:15.681Z,15.13
2022-12-24T19:36:42.245Z,15.15
2022-12-24T19:39:08.908Z,15.14
2022-12-24T19:41:35.467Z,15.14
2022-12-24T19:44:02.348Z,15.13
2022-12-24T19:46:31.958Z,15.15
2022-12-24T19:49:00.473Z,15.15
2022-12-24T19:51:28.237Z,15.16
2022-12-24T19:53:56.421Z,15.14
2022-12-24T19:56:24.334Z,15.13
2022-12-24T19:58:51.514Z,15.15
2022-12-24T20:01:20.181Z,15.13
2022-12-24T20:03:47.745Z,15.13
2022-12-24T20:06:15.712Z,15.14
2022-12-24T20:08:42.951Z,15.13
2022-12-24T20:11:11.737Z,15.13
2022-12-24T20:13:39.943Z,15.13
2022-12-24T20:16:11.758Z,15.12
2022-12-24T20:18:38.502Z,15.12
2022-12-24T20:21:07.584Z,15.10
2022-12-24T20:23:34.607Z,15.10
2022-12-24T20:26:03.177Z,15.09
2022-12-24T20:28:33.090Z,15.10
2022-12-24T20:30:59.753Z,15.07
2022-12-24T20:33:26.727Z,15.07
2022-12-24T20:35:53.317Z,15.08
2022-12-24T20:38:19.870Z,15.08
2022-12-24T20:40:46.444Z,15.11
2022-12-24T20:43:13.166Z,15.11
2022-12-24T20:45:39.856Z,15.12
2022-12-24T20:48:06.776Z,15.11
2022-12-24T20:50:33.482Z,15.11
2022-12-24T20:53:00.163Z,15.13
2022-12-24T20:55:26.748Z,15.13
2022-12-24T20:57:53.300Z,15.14
2022-12-24T21:00:20.543Z,15.14
2022-12-24T21:02:47.236Z,15.13
2022-12-24T21:05:13.939Z,15.14
2022-12-24T21:07:42.940Z,15.13
2022-12-24T21:10:11.020Z,15.12
2022-12-24T21:12:49.922Z,15.12
2022-12-24T21:15:20.833Z,15.12
2022-12-24T21:17:47.907Z,15.12
2022-12-24T21:20:15.275Z,15.11
2022-12-24T21:22:43.442Z,15.12
2022-12-24T21:25:11.384Z,15.11
2022-12-24T21:27:38.505Z,15.11
2022-12-24T21:30:08.065Z,15.10
2022-12-24T21:32:35.986Z,15.09
2022-12-24T21:35:03.109Z,15.11
2022-12-24T21:37:29.691Z,15.09
2022-12-24T21:39:56.293Z,15.10
2022-12-24T21:42:22.893Z,15.10
2022-12-24T21:44:49.446Z,15.10
2022-12-24T21:47:16.045Z,15.11
2022-12-24T21:50:01.096Z,15.10
2022-12-24T21:52:27.665Z,15.08
2022-12-24T21:54:54.230Z,15.11
2022-12-24T21:57:39.590Z,15.12
2022-12-24T22:00:22.011Z,15.11
2022-12-24T22:02:53.441Z,15.12
2022-12-24T22:05:20.869Z,15.11
2022-12-24T22:08:06.106Z,15.13
2022-12-24T22:10:51.473Z,15.11
2022-12-24T22:13:18.463Z,15.14
2022-12-24T22:15:47.971Z,15.14
2022-12-24T22:18:16.385Z,15.14
2022-12-24T22:20:43.812Z,15.14
2022-12-24T22:23:10.787Z,15.14
2022-12-24T22:25:37.768Z,15.13
2022-12-24T22:28:04.530Z,15.13
2022-12-24T22:30:31.740Z,15.12
2022-12-24T22:32:58.783Z,15.11
2022-12-24T22:35:25.345Z,15.11
2022-12-24T22:37:56.113Z,15.11
2022-12-24T22:40:27.860Z,15.11
2022-12-24T22:42:54.685Z,15.10
2022-12-24T22:45:22.699Z,15.10
2022-12-24T22:47:49.673Z,15.10
2022-12-24T22:50:16.762Z,15.10
2022-12-24T22:52:43.349Z,15.08
2022-12-24T22:55:09.988Z,15.07
2022-12-24T22:57:36.585Z,15.08
2022-12-24T23:00:11.320Z,15.08
2022-12-24T23:02:38.304Z,15.05
2022-12-24T23:05:05.249Z,15.07
2022-12-24T23:07:31.802Z,15.07
2022-12-24T23:09:58.411Z,15.06
2022-12-24T23:12:50.835Z,15.07
2022-12-24T23:15:17.423Z,15.07
2022-12-24T23:17:43.979Z,15.07
2022-12-24T23:20:10.902Z,15.08
2022-12-24T23:22:37.623Z,15.09
2022-12-24T23:25:04.395Z,15.10
2022-12-24T23:27:31.001Z,15.11
2022-12-24T23:29:57.740Z,15.13
2022-12-24T23:32:24.315Z,15.13
2022-12-24T23:34:50.860Z,15.15
2022-12-24T23:37:17.451Z,15.15
2022-12-24T23:39:44.023Z,15.14
2022-12-24T23:42:10.581Z,15.14
2022-12-24T23:44:37.268Z,15.15
2022-12-24T23:47:03.993Z,15.14
2022-12-24T23:49:30.703Z,15.13
2022-12-24T23:51:57.255Z,15.13
2022-12-24T23:54:23.826Z,15.13
2022-12-24T23:56:50.372Z,15.13
2022-12-24T23:59:16.963Z,15.12
